sensor_id;sensor_type;location;lat;lon;timestamp;P1;durP1;ratioP1;P2;durP2;ratioP2
71570;SDS011;59407;42.682;23.322;2023-08-12T00:01:16;3.50;;;2.10;;
71570;SDS011;59407;42.682;23.322;2023-08-12T00:04:01;4.13;;;2.15;;
71570;SDS011;59407;42.682;23.322;2023-08-12T00:06:26;4.57;;;2.27;;
71570;SDS011;59407;42.682;23.322;2023-08-12T00:08:53;5.15;;;2.30;;
71570;SDS011;59407;42.682;23.322;2023-08-12T00:11:18;4.13;;;1.90;;
71570;SDS011;59407;42.682;23.322;2023-08-12T00:13:44;4.07;;;2.30;;
71570;SDS011;59407;42.682;23.322;2023-08-12T00:16:09;3.70;;;2.50;;
71570;SDS011;59407;42.682;23.322;2023-08-12T00:18:34;4.20;;;2.47;;
71570;SDS011;59407;42.682;23.322;2023-08-12T00:21:06;3.07;;;2.27;;
71570;SDS011;59407;42.682;23.322;2023-08-12T00:23:32;5.30;;;2.15;;
71570;SDS011;59407;42.682;23.322;2023-08-12T00:25:58;4.20;;;2.40;;
71570;SDS011;59407;42.682;23.322;2023-08-12T00:28:24;3.27;;;2.10;;
71570;SDS011;59407;42.682;23.322;2023-08-12T00:30:49;4.20;;;2.37;;
71570;SDS011;59407;42.682;23.322;2023-08-12T00:33:14;3.30;;;2.50;;
71570;SDS011;59407;42.682;23.322;2023-08-12T00:35:40;4.10;;;2.40;;
71570;SDS011;59407;42.682;23.322;2023-08-12T00:38:05;4.60;;;2.40;;
71570;SDS011;59407;42.682;23.322;2023-08-12T00:40:31;3.97;;;2.07;;
71570;SDS011;59407;42.682;23.322;2023-08-12T00:42:56;3.42;;;2.10;;
71570;SDS011;59407;42.682;23.322;2023-08-12T00:45:22;5.03;;;2.50;;
71570;SDS011;59407;42.682;23.322;2023-08-12T00:47:47;3.70;;;2.30;;
71570;SDS011;59407;42.682;23.322;2023-08-12T00:50:13;4.77;;;2.47;;
71570;SDS011;59407;42.682;23.322;2023-08-12T00:52:39;3.75;;;2.10;;
71570;SDS011;59407;42.682;23.322;2023-08-12T00:55:05;4.13;;;2.40;;
71570;SDS011;59407;42.682;23.322;2023-08-12T00:57:31;4.60;;;2.40;;
71570;SDS011;59407;42.682;23.322;2023-08-12T00:59:57;3.40;;;2.50;;
71570;SDS011;59407;42.682;23.322;2023-08-12T01:02:22;4.73;;;2.40;;
71570;SDS011;59407;42.682;23.322;2023-08-12T01:04:48;4.32;;;2.25;;
71570;SDS011;59407;42.682;23.322;2023-08-12T01:07:13;4.53;;;2.30;;
71570;SDS011;59407;42.682;23.322;2023-08-12T01:09:38;4.03;;;2.47;;
71570;SDS011;59407;42.682;23.322;2023-08-12T01:12:16;3.60;;;2.13;;
71570;SDS011;59407;42.682;23.322;2023-08-12T01:14:49;5.72;;;2.42;;
71570;SDS011;59407;42.682;23.322;2023-08-12T01:17:18;3.47;;;2.22;;
71570;SDS011;59407;42.682;23.322;2023-08-12T01:19:44;3.90;;;2.17;;
71570;SDS011;59407;42.682;23.322;2023-08-12T01:22:12;5.97;;;2.28;;
71570;SDS011;59407;42.682;23.322;2023-08-12T01:24:42;4.13;;;2.00;;
71570;SDS011;59407;42.682;23.322;2023-08-12T01:27:09;4.70;;;2.65;;
71570;SDS011;59407;42.682;23.322;2023-08-12T01:29:45;5.43;;;2.50;;
71570;SDS011;59407;42.682;23.322;2023-08-12T01:35:10;3.25;;;2.13;;
71570;SDS011;59407;42.682;23.322;2023-08-12T01:37:41;3.60;;;2.28;;
71570;SDS011;59407;42.682;23.322;2023-08-12T01:40:07;4.07;;;2.60;;
71570;SDS011;59407;42.682;23.322;2023-08-12T01:42:34;3.53;;;2.57;;
71570;SDS011;59407;42.682;23.322;2023-08-12T01:45:01;3.83;;;2.40;;
71570;SDS011;59407;42.682;23.322;2023-08-12T01:47:27;4.05;;;2.42;;
71570;SDS011;59407;42.682;23.322;2023-08-12T01:49:53;5.00;;;2.80;;
71570;SDS011;59407;42.682;23.322;2023-08-12T01:52:19;4.67;;;2.40;;
71570;SDS011;59407;42.682;23.322;2023-08-12T01:54:44;4.07;;;2.47;;
71570;SDS011;59407;42.682;23.322;2023-08-12T01:57:09;5.80;;;2.40;;
71570;SDS011;59407;42.682;23.322;2023-08-12T01:59:36;4.13;;;2.60;;
71570;SDS011;59407;42.682;23.322;2023-08-12T02:02:01;4.00;;;2.80;;
71570;SDS011;59407;42.682;23.322;2023-08-12T02:04:27;4.27;;;2.23;;
71570;SDS011;59407;42.682;23.322;2023-08-12T02:06:53;4.35;;;2.38;;
71570;SDS011;59407;42.682;23.322;2023-08-12T02:09:19;5.20;;;2.80;;
71570;SDS011;59407;42.682;23.322;2023-08-12T02:11:45;4.53;;;2.45;;
71570;SDS011;59407;42.682;23.322;2023-08-12T02:14:11;4.22;;;2.78;;
71570;SDS011;59407;42.682;23.322;2023-08-12T02:16:36;4.63;;;2.53;;
71570;SDS011;59407;42.682;23.322;2023-08-12T02:19:02;4.65;;;2.67;;
71570;SDS011;59407;42.682;23.322;2023-08-12T02:21:28;3.97;;;2.50;;
71570;SDS011;59407;42.682;23.322;2023-08-12T02:23:53;4.07;;;2.50;;
71570;SDS011;59407;42.682;23.322;2023-08-12T02:26:19;3.57;;;2.30;;
71570;SDS011;59407;42.682;23.322;2023-08-12T02:28:44;4.35;;;2.42;;
71570;SDS011;59407;42.682;23.322;2023-08-12T02:31:10;3.73;;;2.40;;
71570;SDS011;59407;42.682;23.322;2023-08-12T02:33:35;4.20;;;2.30;;
71570;SDS011;59407;42.682;23.322;2023-08-12T02:36:01;3.47;;;2.15;;
71570;SDS011;59407;42.682;23.322;2023-08-12T02:38:26;3.97;;;2.30;;
71570;SDS011;59407;42.682;23.322;2023-08-12T02:40:51;5.77;;;2.80;;
71570;SDS011;59407;42.682;23.322;2023-08-12T02:43:17;5.00;;;2.60;;
71570;SDS011;59407;42.682;23.322;2023-08-12T02:45:42;5.10;;;2.60;;
71570;SDS011;59407;42.682;23.322;2023-08-12T02:48:12;5.77;;;2.30;;
71570;SDS011;59407;42.682;23.322;2023-08-12T02:50:38;4.20;;;2.53;;
71570;SDS011;59407;42.682;23.322;2023-08-12T02:53:04;3.92;;;2.50;;
71570;SDS011;59407;42.682;23.322;2023-08-12T02:55:29;4.77;;;2.33;;
71570;SDS011;59407;42.682;23.322;2023-08-12T02:57:56;5.03;;;2.67;;
71570;SDS011;59407;42.682;23.322;2023-08-12T03:00:22;5.45;;;2.85;;
71570;SDS011;59407;42.682;23.322;2023-08-12T03:02:48;4.13;;;2.80;;
71570;SDS011;59407;42.682;23.322;2023-08-12T03:05:13;6.40;;;3.17;;
71570;SDS011;59407;42.682;23.322;2023-08-12T03:07:38;5.03;;;2.33;;
71570;SDS011;59407;42.682;23.322;2023-08-12T03:10:04;4.53;;;2.78;;
71570;SDS011;59407;42.682;23.322;2023-08-12T03:12:31;5.93;;;3.00;;
71570;SDS011;59407;42.682;23.322;2023-08-12T03:14:56;3.90;;;2.90;;
71570;SDS011;59407;42.682;23.322;2023-08-12T03:17:21;4.50;;;2.60;;
71570;SDS011;59407;42.682;23.322;2023-08-12T03:19:47;4.72;;;2.78;;
71570;SDS011;59407;42.682;23.322;2023-08-12T03:22:13;3.67;;;2.20;;
71570;SDS011;59407;42.682;23.322;2023-08-12T03:24:39;4.75;;;2.60;;
71570;SDS011;59407;42.682;23.322;2023-08-12T03:27:04;4.47;;;2.83;;
71570;SDS011;59407;42.682;23.322;2023-08-12T03:29:30;4.07;;;2.80;;
71570;SDS011;59407;42.682;23.322;2023-08-12T03:31:55;4.90;;;2.40;;
71570;SDS011;59407;42.682;23.322;2023-08-12T03:34:20;4.80;;;2.63;;
71570;SDS011;59407;42.682;23.322;2023-08-12T03:36:46;4.50;;;2.70;;
71570;SDS011;59407;42.682;23.322;2023-08-12T03:39:13;7.15;;;2.90;;
71570;SDS011;59407;42.682;23.322;2023-08-12T03:41:39;5.55;;;2.97;;
71570;SDS011;59407;42.682;23.322;2023-08-12T03:44:05;4.63;;;2.43;;
71570;SDS011;59407;42.682;23.322;2023-08-12T03:46:30;4.57;;;2.63;;
71570;SDS011;59407;42.682;23.322;2023-08-12T03:48:56;5.00;;;2.70;;
71570;SDS011;59407;42.682;23.322;2023-08-12T03:51:22;6.37;;;2.67;;
71570;SDS011;59407;42.682;23.322;2023-08-12T03:53:47;6.43;;;2.90;;
71570;SDS011;59407;42.682;23.322;2023-08-12T03:56:12;3.25;;;2.00;;
71570;SDS011;59407;42.682;23.322;2023-08-12T03:58:40;4.73;;;2.47;;
71570;SDS011;59407;42.682;23.322;2023-08-12T04:01:06;4.57;;;2.50;;
71570;SDS011;59407;42.682;23.322;2023-08-12T04:03:32;3.63;;;2.20;;
71570;SDS011;59407;42.682;23.322;2023-08-12T04:05:57;4.32;;;2.40;;
71570;SDS011;59407;42.682;23.322;2023-08-12T04:08:23;6.07;;;2.30;;
71570;SDS011;59407;42.682;23.322;2023-08-12T04:10:49;5.50;;;2.50;;
71570;SDS011;59407;42.682;23.322;2023-08-12T04:13:16;6.90;;;2.42;;
71570;SDS011;59407;42.682;23.322;2023-08-12T04:15:41;4.37;;;2.03;;
71570;SDS011;59407;42.682;23.322;2023-08-12T04:18:07;5.23;;;3.03;;
71570;SDS011;59407;42.682;23.322;2023-08-12T04:20:32;3.33;;;2.20;;
71570;SDS011;59407;42.682;23.322;2023-08-12T04:22:58;4.07;;;2.80;;
71570;SDS011;59407;42.682;23.322;2023-08-12T04:25:23;5.53;;;2.97;;
71570;SDS011;59407;42.682;23.322;2023-08-12T04:27:49;4.85;;;3.17;;
71570;SDS011;59407;42.682;23.322;2023-08-12T04:30:18;5.70;;;3.20;;
71570;SDS011;59407;42.682;23.322;2023-08-12T04:32:43;5.90;;;3.38;;
71570;SDS011;59407;42.682;23.322;2023-08-12T04:35:09;6.23;;;4.00;;
71570;SDS011;59407;42.682;23.322;2023-08-12T04:37:35;6.18;;;3.90;;
71570;SDS011;59407;42.682;23.322;2023-08-12T04:40:01;5.37;;;3.10;;
71570;SDS011;59407;42.682;23.322;2023-08-12T04:42:29;4.47;;;2.92;;
71570;SDS011;59407;42.682;23.322;2023-08-12T04:44:54;4.00;;;2.90;;
71570;SDS011;59407;42.682;23.322;2023-08-12T04:47:19;6.55;;;3.60;;
71570;SDS011;59407;42.682;23.322;2023-08-12T04:49:45;5.03;;;3.10;;
71570;SDS011;59407;42.682;23.322;2023-08-12T04:52:10;5.03;;;3.03;;
71570;SDS011;59407;42.682;23.322;2023-08-12T04:54:36;4.47;;;2.93;;
71570;SDS011;59407;42.682;23.322;2023-08-12T04:57:01;4.60;;;3.17;;
71570;SDS011;59407;42.682;23.322;2023-08-12T04:59:27;5.50;;;2.97;;
71570;SDS011;59407;42.682;23.322;2023-08-12T05:01:52;4.57;;;2.50;;
71570;SDS011;59407;42.682;23.322;2023-08-12T05:04:17;5.63;;;2.77;;
71570;SDS011;59407;42.682;23.322;2023-08-12T05:06:43;4.73;;;2.90;;
71570;SDS011;59407;42.682;23.322;2023-08-12T05:09:08;4.55;;;2.15;;
71570;SDS011;59407;42.682;23.322;2023-08-12T05:11:37;3.47;;;2.10;;
71570;SDS011;59407;42.682;23.322;2023-08-12T05:14:05;3.40;;;2.35;;
71570;SDS011;59407;42.682;23.322;2023-08-12T05:16:31;4.40;;;2.57;;
71570;SDS011;59407;42.682;23.322;2023-08-12T05:18:56;4.28;;;2.72;;
71570;SDS011;59407;42.682;23.322;2023-08-12T05:21:27;3.97;;;2.40;;
71570;SDS011;59407;42.682;23.322;2023-08-12T05:23:53;4.63;;;2.80;;
71570;SDS011;59407;42.682;23.322;2023-08-12T05:26:18;5.70;;;2.57;;
71570;SDS011;59407;42.682;23.322;2023-08-12T05:28:45;4.93;;;2.83;;
71570;SDS011;59407;42.682;23.322;2023-08-12T05:31:10;4.47;;;2.37;;
71570;SDS011;59407;42.682;23.322;2023-08-12T05:33:36;4.87;;;2.57;;
71570;SDS011;59407;42.682;23.322;2023-08-12T05:36:02;4.18;;;2.40;;
71570;SDS011;59407;42.682;23.322;2023-08-12T05:38:27;5.07;;;2.70;;
71570;SDS011;59407;42.682;23.322;2023-08-12T05:40:53;6.00;;;2.70;;
71570;SDS011;59407;42.682;23.322;2023-08-12T05:43:18;3.93;;;2.60;;
71570;SDS011;59407;42.682;23.322;2023-08-12T05:45:44;5.70;;;2.40;;
71570;SDS011;59407;42.682;23.322;2023-08-12T05:48:09;4.43;;;2.20;;
71570;SDS011;59407;42.682;23.322;2023-08-12T05:50:34;4.00;;;2.53;;
71570;SDS011;59407;42.682;23.322;2023-08-12T05:53:00;5.28;;;2.55;;
71570;SDS011;59407;42.682;23.322;2023-08-12T05:55:25;6.00;;;2.67;;
71570;SDS011;59407;42.682;23.322;2023-08-12T05:57:51;4.73;;;2.57;;
71570;SDS011;59407;42.682;23.322;2023-08-12T06:00:16;3.73;;;2.50;;
71570;SDS011;59407;42.682;23.322;2023-08-12T06:02:42;5.00;;;2.70;;
71570;SDS011;59407;42.682;23.322;2023-08-12T06:05:07;5.13;;;2.40;;
71570;SDS011;59407;42.682;23.322;2023-08-12T06:07:33;5.55;;;2.47;;
71570;SDS011;59407;42.682;23.322;2023-08-12T06:09:59;5.43;;;2.27;;
71570;SDS011;59407;42.682;23.322;2023-08-12T06:12:25;3.97;;;2.78;;
71570;SDS011;59407;42.682;23.322;2023-08-12T06:14:50;6.87;;;2.73;;
71570;SDS011;59407;42.682;23.322;2023-08-12T06:17:16;5.23;;;2.53;;
71570;SDS011;59407;42.682;23.322;2023-08-12T06:19:41;4.30;;;2.57;;
71570;SDS011;59407;42.682;23.322;2023-08-12T06:22:07;5.32;;;2.65;;
71570;SDS011;59407;42.682;23.322;2023-08-12T06:24:32;4.50;;;2.30;;
71570;SDS011;59407;42.682;23.322;2023-08-12T06:26:57;4.20;;;2.50;;
71570;SDS011;59407;42.682;23.322;2023-08-12T06:29:23;5.23;;;2.40;;
71570;SDS011;59407;42.682;23.322;2023-08-12T06:31:48;4.20;;;2.13;;
71570;SDS011;59407;42.682;23.322;2023-08-12T06:34:14;4.18;;;2.50;;
71570;SDS011;59407;42.682;23.322;2023-08-12T06:36:39;5.00;;;2.37;;
71570;SDS011;59407;42.682;23.322;2023-08-12T06:39:04;4.23;;;2.47;;
71570;SDS011;59407;42.682;23.322;2023-08-12T06:41:30;3.50;;;2.40;;
71570;SDS011;59407;42.682;23.322;2023-08-12T06:43:55;5.87;;;2.83;;
71570;SDS011;59407;42.682;23.322;2023-08-12T06:46:21;4.40;;;2.42;;
71570;SDS011;59407;42.682;23.322;2023-08-12T06:48:46;3.27;;;2.33;;
71570;SDS011;59407;42.682;23.322;2023-08-12T06:51:12;5.47;;;2.60;;
71570;SDS011;59407;42.682;23.322;2023-08-12T06:53:40;4.28;;;2.60;;
71570;SDS011;59407;42.682;23.322;2023-08-12T06:56:06;3.50;;;2.60;;
71570;SDS011;59407;42.682;23.322;2023-08-12T06:58:31;6.10;;;2.88;;
71570;SDS011;59407;42.682;23.322;2023-08-12T07:00:57;4.00;;;2.23;;
71570;SDS011;59407;42.682;23.322;2023-08-12T07:03:24;4.00;;;2.50;;
71570;SDS011;59407;42.682;23.322;2023-08-12T07:05:49;5.03;;;2.40;;
71570;SDS011;59407;42.682;23.322;2023-08-12T07:08:15;5.07;;;2.90;;
71570;SDS011;59407;42.682;23.322;2023-08-12T07:10:40;5.07;;;2.43;;
71570;SDS011;59407;42.682;23.322;2023-08-12T07:13:06;4.47;;;2.30;;
71570;SDS011;59407;42.682;23.322;2023-08-12T07:15:31;6.60;;;2.40;;
71570;SDS011;59407;42.682;23.322;2023-08-12T07:17:57;4.50;;;2.30;;
71570;SDS011;59407;42.682;23.322;2023-08-12T07:20:24;5.80;;;2.30;;
71570;SDS011;59407;42.682;23.322;2023-08-12T07:22:50;3.60;;;2.00;;
71570;SDS011;59407;42.682;23.322;2023-08-12T07:25:15;5.20;;;2.40;;
71570;SDS011;59407;42.682;23.322;2023-08-12T07:27:41;3.63;;;2.03;;
71570;SDS011;59407;42.682;23.322;2023-08-12T07:30:06;3.80;;;2.37;;
71570;SDS011;59407;42.682;23.322;2023-08-12T07:32:33;3.35;;;2.17;;
71570;SDS011;59407;42.682;23.322;2023-08-12T07:34:58;3.65;;;2.10;;
71570;SDS011;59407;42.682;23.322;2023-08-12T07:37:25;4.47;;;2.30;;
71570;SDS011;59407;42.682;23.322;2023-08-12T07:39:50;3.40;;;2.17;;
71570;SDS011;59407;42.682;23.322;2023-08-12T07:42:16;5.18;;;2.22;;
71570;SDS011;59407;42.682;23.322;2023-08-12T07:44:42;3.03;;;1.83;;
71570;SDS011;59407;42.682;23.322;2023-08-12T07:47:08;4.85;;;2.58;;
71570;SDS011;59407;42.682;23.322;2023-08-12T07:49:34;3.80;;;2.05;;
71570;SDS011;59407;42.682;23.322;2023-08-12T07:52:00;4.30;;;2.57;;
71570;SDS011;59407;42.682;23.322;2023-08-12T07:54:25;3.78;;;2.28;;
71570;SDS011;59407;42.682;23.322;2023-08-12T07:56:51;3.33;;;1.70;;
71570;SDS011;59407;42.682;23.322;2023-08-12T07:59:18;4.05;;;2.28;;
71570;SDS011;59407;42.682;23.322;2023-08-12T08:01:44;4.60;;;2.00;;
71570;SDS011;59407;42.682;23.322;2023-08-12T08:04:09;7.10;;;4.38;;
71570;SDS011;59407;42.682;23.322;2023-08-12T08:06:35;6.30;;;2.30;;
71570;SDS011;59407;42.682;23.322;2023-08-12T08:09:00;3.90;;;2.17;;
71570;SDS011;59407;42.682;23.322;2023-08-12T08:11:30;3.97;;;2.10;;
71570;SDS011;59407;42.682;23.322;2023-08-12T08:13:57;4.93;;;2.35;;
71570;SDS011;59407;42.682;23.322;2023-08-12T08:16:23;4.50;;;2.50;;
71570;SDS011;59407;42.682;23.322;2023-08-12T08:18:48;3.90;;;2.03;;
71570;SDS011;59407;42.682;23.322;2023-08-12T08:21:13;4.03;;;1.97;;
71570;SDS011;59407;42.682;23.322;2023-08-12T08:23:40;4.33;;;2.20;;
71570;SDS011;59407;42.682;23.322;2023-08-12T08:26:06;4.65;;;2.30;;
71570;SDS011;59407;42.682;23.322;2023-08-12T08:28:32;3.70;;;2.00;;
71570;SDS011;59407;42.682;23.322;2023-08-12T08:30:57;5.55;;;3.13;;
71570;SDS011;59407;42.682;23.322;2023-08-12T08:33:24;3.50;;;2.10;;
71570;SDS011;59407;42.682;23.322;2023-08-12T08:35:50;4.33;;;2.30;;
71570;SDS011;59407;42.682;23.322;2023-08-12T08:38:16;3.10;;;2.00;;
71570;SDS011;59407;42.682;23.322;2023-08-12T08:40:41;3.47;;;2.10;;
71570;SDS011;59407;42.682;23.322;2023-08-12T08:43:07;4.60;;;2.47;;
71570;SDS011;59407;42.682;23.322;2023-08-12T08:45:33;4.23;;;2.20;;
71570;SDS011;59407;42.682;23.322;2023-08-12T08:47:59;3.42;;;2.10;;
71570;SDS011;59407;42.682;23.322;2023-08-12T08:50:40;3.70;;;2.33;;
71570;SDS011;59407;42.682;23.322;2023-08-12T08:53:07;4.10;;;2.50;;
71570;SDS011;59407;42.682;23.322;2023-08-12T08:55:36;3.93;;;2.53;;
71570;SDS011;59407;42.682;23.322;2023-08-12T08:58:01;3.40;;;1.90;;
71570;SDS011;59407;42.682;23.322;2023-08-12T09:03:03;3.38;;;1.85;;
71570;SDS011;59407;42.682;23.322;2023-08-12T09:05:30;3.65;;;2.05;;
71570;SDS011;59407;42.682;23.322;2023-08-12T09:07:56;3.35;;;1.95;;
71570;SDS011;59407;42.682;23.322;2023-08-12T09:10:24;3.40;;;2.37;;
71570;SDS011;59407;42.682;23.322;2023-08-12T09:12:51;3.15;;;1.98;;
71570;SDS011;59407;42.682;23.322;2023-08-12T09:15:18;3.47;;;1.67;;
71570;SDS011;59407;42.682;23.322;2023-08-12T09:17:44;3.40;;;1.90;;
71570;SDS011;59407;42.682;23.322;2023-08-12T09:20:09;7.65;;;2.40;;
71570;SDS011;59407;42.682;23.322;2023-08-12T09:22:39;3.70;;;1.73;;
71570;SDS011;59407;42.682;23.322;2023-08-12T09:25:05;4.00;;;1.80;;
71570;SDS011;59407;42.682;23.322;2023-08-12T09:27:31;3.70;;;2.10;;
71570;SDS011;59407;42.682;23.322;2023-08-12T09:29:57;3.53;;;1.93;;
71570;SDS011;59407;42.682;23.322;2023-08-12T09:32:23;4.75;;;2.10;;
71570;SDS011;59407;42.682;23.322;2023-08-12T09:34:55;3.37;;;2.00;;
71570;SDS011;59407;42.682;23.322;2023-08-12T09:37:21;3.53;;;2.10;;
71570;SDS011;59407;42.682;23.322;2023-08-12T09:39:48;3.40;;;1.92;;
71570;SDS011;59407;42.682;23.322;2023-08-12T09:42:15;3.50;;;2.00;;
71570;SDS011;59407;42.682;23.322;2023-08-12T09:44:41;5.17;;;2.10;;
71570;SDS011;59407;42.682;23.322;2023-08-12T09:47:07;3.10;;;1.80;;
71570;SDS011;59407;42.682;23.322;2023-08-12T09:49:36;7.18;;;3.80;;
71570;SDS011;59407;42.682;23.322;2023-08-12T09:52:02;4.55;;;1.88;;
71570;SDS011;59407;42.682;23.322;2023-08-12T09:54:30;3.25;;;1.83;;
71570;SDS011;59407;42.682;23.322;2023-08-12T09:56:57;2.90;;;1.63;;
71570;SDS011;59407;42.682;23.322;2023-08-12T09:59:24;3.25;;;1.80;;
71570;SDS011;59407;42.682;23.322;2023-08-12T10:01:54;3.35;;;1.90;;
71570;SDS011;59407;42.682;23.322;2023-08-12T10:04:21;5.43;;;1.70;;
71570;SDS011;59407;42.682;23.322;2023-08-12T10:06:48;3.22;;;1.83;;
71570;SDS011;59407;42.682;23.322;2023-08-12T10:09:15;2.70;;;1.70;;
71570;SDS011;59407;42.682;23.322;2023-08-12T10:11:41;3.92;;;1.58;;
71570;SDS011;59407;42.682;23.322;2023-08-12T10:14:08;3.17;;;1.90;;
71570;SDS011;59407;42.682;23.322;2023-08-12T10:16:41;3.22;;;1.50;;
71570;SDS011;59407;42.682;23.322;2023-08-12T10:19:11;3.67;;;1.87;;
71570;SDS011;59407;42.682;23.322;2023-08-12T10:21:36;3.60;;;1.90;;
71570;SDS011;59407;42.682;23.322;2023-08-12T10:24:02;2.72;;;1.58;;
71570;SDS011;59407;42.682;23.322;2023-08-12T10:26:29;3.38;;;1.77;;
71570;SDS011;59407;42.682;23.322;2023-08-12T10:29:00;3.28;;;1.67;;
71570;SDS011;59407;42.682;23.322;2023-08-12T10:31:28;3.37;;;1.70;;
71570;SDS011;59407;42.682;23.322;2023-08-12T10:33:54;4.18;;;1.88;;
71570;SDS011;59407;42.682;23.322;2023-08-12T10:36:20;3.43;;;1.70;;
71570;SDS011;59407;42.682;23.322;2023-08-12T10:38:46;5.50;;;1.75;;
71570;SDS011;59407;42.682;23.322;2023-08-12T10:48:55;3.45;;;1.40;;
71570;SDS011;59407;42.682;23.322;2023-08-12T10:54:24;2.93;;;1.60;;
71570;SDS011;59407;42.682;23.322;2023-08-12T11:04:44;3.20;;;1.33;;
71570;SDS011;59407;42.682;23.322;2023-08-12T11:07:20;3.20;;;1.50;;
71570;SDS011;59407;42.682;23.322;2023-08-12T11:09:51;2.80;;;1.38;;
71570;SDS011;59407;42.682;23.322;2023-08-12T11:12:30;4.13;;;1.20;;
71570;SDS011;59407;42.682;23.322;2023-08-12T11:14:59;2.47;;;1.00;;
71570;SDS011;59407;42.682;23.322;2023-08-12T11:17:29;2.83;;;1.17;;
71570;SDS011;59407;42.682;23.322;2023-08-12T11:19:58;2.70;;;1.20;;
71570;SDS011;59407;42.682;23.322;2023-08-12T11:22:25;4.15;;;1.30;;
71570;SDS011;59407;42.682;23.322;2023-08-12T11:24:50;2.78;;;1.05;;
71570;SDS011;59407;42.682;23.322;2023-08-12T11:27:16;2.83;;;1.40;;
71570;SDS011;59407;42.682;23.322;2023-08-12T11:29:42;2.65;;;1.50;;
71570;SDS011;59407;42.682;23.322;2023-08-12T11:32:09;3.03;;;1.30;;
71570;SDS011;59407;42.682;23.322;2023-08-12T11:34:34;2.50;;;1.30;;
71570;SDS011;59407;42.682;23.322;2023-08-12T11:37:00;2.80;;;0.90;;
71570;SDS011;59407;42.682;23.322;2023-08-12T11:39:25;2.77;;;1.27;;
71570;SDS011;59407;42.682;23.322;2023-08-12T11:41:51;2.58;;;1.17;;
71570;SDS011;59407;42.682;23.322;2023-08-12T11:44:20;2.20;;;1.10;;
71570;SDS011;59407;42.682;23.322;2023-08-12T11:46:46;2.10;;;1.10;;
71570;SDS011;59407;42.682;23.322;2023-08-12T11:49:12;2.70;;;1.30;;
71570;SDS011;59407;42.682;23.322;2023-08-12T11:51:37;2.58;;;1.00;;
71570;SDS011;59407;42.682;23.322;2023-08-12T11:54:03;3.00;;;0.97;;
71570;SDS011;59407;42.682;23.322;2023-08-12T11:56:29;2.95;;;0.90;;
71570;SDS011;59407;42.682;23.322;2023-08-12T11:58:55;3.07;;;1.30;;
71570;SDS011;59407;42.682;23.322;2023-08-12T12:01:21;2.50;;;1.03;;
71570;SDS011;59407;42.682;23.322;2023-08-12T12:03:53;2.00;;;0.80;;
71570;SDS011;59407;42.682;23.322;2023-08-12T12:06:31;2.60;;;0.93;;
71570;SDS011;59407;42.682;23.322;2023-08-12T12:09:03;3.03;;;1.10;;
71570;SDS011;59407;42.682;23.322;2023-08-12T12:11:31;2.50;;;1.20;;
71570;SDS011;59407;42.682;23.322;2023-08-12T12:14:02;2.80;;;1.27;;
71570;SDS011;59407;42.682;23.322;2023-08-12T12:16:42;3.23;;;1.50;;
71570;SDS011;59407;42.682;23.322;2023-08-12T12:19:09;2.83;;;1.30;;
71570;SDS011;59407;42.682;23.322;2023-08-12T12:21:42;2.90;;;1.52;;
71570;SDS011;59407;42.682;23.322;2023-08-12T12:24:08;2.83;;;1.50;;
71570;SDS011;59407;42.682;23.322;2023-08-12T12:26:34;2.53;;;1.40;;
71570;SDS011;59407;42.682;23.322;2023-08-12T12:29:00;2.92;;;1.38;;
71570;SDS011;59407;42.682;23.322;2023-08-12T12:31:26;3.20;;;1.52;;
71570;SDS011;59407;42.682;23.322;2023-08-12T12:33:51;2.47;;;1.13;;
71570;SDS011;59407;42.682;23.322;2023-08-12T12:36:17;3.60;;;1.60;;
71570;SDS011;59407;42.682;23.322;2023-08-12T12:38:42;4.47;;;2.08;;
71570;SDS011;59407;42.682;23.322;2023-08-12T12:41:08;5.70;;;3.50;;
71570;SDS011;59407;42.682;23.322;2023-08-12T12:43:34;4.82;;;2.65;;
71570;SDS011;59407;42.682;23.322;2023-08-12T12:45:59;2.70;;;1.27;;
71570;SDS011;59407;42.682;23.322;2023-08-12T12:48:26;2.50;;;1.33;;
71570;SDS011;59407;42.682;23.322;2023-08-12T12:50:52;2.60;;;1.20;;
71570;SDS011;59407;42.682;23.322;2023-08-12T12:53:18;2.27;;;1.07;;
71570;SDS011;59407;42.682;23.322;2023-08-12T12:55:43;2.67;;;1.30;;
71570;SDS011;59407;42.682;23.322;2023-08-12T12:58:09;3.70;;;1.23;;
71570;SDS011;59407;42.682;23.322;2023-08-12T13:00:35;3.00;;;1.30;;
71570;SDS011;59407;42.682;23.322;2023-08-12T13:03:00;2.80;;;1.27;;
71570;SDS011;59407;42.682;23.322;2023-08-12T13:05:25;2.73;;;1.10;;
71570;SDS011;59407;42.682;23.322;2023-08-12T13:07:51;3.15;;;1.20;;
71570;SDS011;59407;42.682;23.322;2023-08-12T13:10:17;2.80;;;1.15;;
71570;SDS011;59407;42.682;23.322;2023-08-12T13:12:43;3.17;;;1.60;;
71570;SDS011;59407;42.682;23.322;2023-08-12T13:15:09;2.73;;;1.30;;
71570;SDS011;59407;42.682;23.322;2023-08-12T13:17:34;2.60;;;1.40;;
71570;SDS011;59407;42.682;23.322;2023-08-12T13:20:00;2.40;;;1.20;;
71570;SDS011;59407;42.682;23.322;2023-08-12T13:22:25;2.40;;;1.27;;
71570;SDS011;59407;42.682;23.322;2023-08-12T13:24:51;3.47;;;1.30;;
71570;SDS011;59407;42.682;23.322;2023-08-12T13:27:16;2.57;;;1.10;;
71570;SDS011;59407;42.682;23.322;2023-08-12T13:29:42;2.30;;;1.10;;
71570;SDS011;59407;42.682;23.322;2023-08-12T13:32:11;2.73;;;0.90;;
71570;SDS011;59407;42.682;23.322;2023-08-12T13:34:54;2.72;;;1.08;;
71570;SDS011;59407;42.682;23.322;2023-08-12T13:37:20;3.23;;;1.10;;
71570;SDS011;59407;42.682;23.322;2023-08-12T13:39:47;2.35;;;1.00;;
71570;SDS011;59407;42.682;23.322;2023-08-12T13:42:12;2.20;;;1.10;;
71570;SDS011;59407;42.682;23.322;2023-08-12T13:44:38;2.63;;;1.10;;
71570;SDS011;59407;42.682;23.322;2023-08-12T13:47:03;2.70;;;1.20;;
71570;SDS011;59407;42.682;23.322;2023-08-12T13:49:29;3.07;;;1.10;;
71570;SDS011;59407;42.682;23.322;2023-08-12T13:51:54;2.60;;;1.20;;
71570;SDS011;59407;42.682;23.322;2023-08-12T13:54:20;2.40;;;1.30;;
71570;SDS011;59407;42.682;23.322;2023-08-12T13:56:45;4.30;;;1.30;;
71570;SDS011;59407;42.682;23.322;2023-08-12T13:59:11;3.83;;;1.07;;
71570;SDS011;59407;42.682;23.322;2023-08-12T14:01:36;2.50;;;1.20;;
71570;SDS011;59407;42.682;23.322;2023-08-12T14:04:02;2.67;;;1.13;;
71570;SDS011;59407;42.682;23.322;2023-08-12T14:06:28;3.00;;;1.20;;
71570;SDS011;59407;42.682;23.322;2023-08-12T14:08:54;2.20;;;0.90;;
71570;SDS011;59407;42.682;23.322;2023-08-12T14:11:19;2.10;;;1.05;;
71570;SDS011;59407;42.682;23.322;2023-08-12T14:13:45;2.75;;;1.23;;
71570;SDS011;59407;42.682;23.322;2023-08-12T14:16:11;2.23;;;1.00;;
71570;SDS011;59407;42.682;23.322;2023-08-12T14:18:37;2.67;;;1.20;;
71570;SDS011;59407;42.682;23.322;2023-08-12T14:21:02;3.20;;;1.30;;
71570;SDS011;59407;42.682;23.322;2023-08-12T14:23:28;2.78;;;1.20;;
71570;SDS011;59407;42.682;23.322;2023-08-12T14:26:14;2.40;;;1.17;;
71570;SDS011;59407;42.682;23.322;2023-08-12T14:28:39;2.75;;;1.40;;
71570;SDS011;59407;42.682;23.322;2023-08-12T14:31:05;2.90;;;1.10;;
71570;SDS011;59407;42.682;23.322;2023-08-12T14:33:30;2.40;;;1.00;;
71570;SDS011;59407;42.682;23.322;2023-08-12T14:35:59;2.97;;;1.17;;
71570;SDS011;59407;42.682;23.322;2023-08-12T14:38:25;3.33;;;1.50;;
71570;SDS011;59407;42.682;23.322;2023-08-12T14:40:51;2.30;;;0.83;;
71570;SDS011;59407;42.682;23.322;2023-08-12T14:43:16;2.38;;;1.00;;
71570;SDS011;59407;42.682;23.322;2023-08-12T14:45:45;2.67;;;1.10;;
71570;SDS011;59407;42.682;23.322;2023-08-12T14:48:11;2.60;;;1.10;;
71570;SDS011;59407;42.682;23.322;2023-08-12T14:50:39;2.63;;;0.90;;
71570;SDS011;59407;42.682;23.322;2023-08-12T14:53:05;2.50;;;1.10;;